Time;durP1;ratioP1;P1;durP2;ratioP2;P2;SDS_P1;SDS_P2;PMS_P1;PMS_P2;Temp;Humidity;BMP_temperature;BMP_pressure;BME280_temperature;BME280_humidity;BME280_pressure;Samples;Min_cycle;Max_cycle;Signal;HPM_P1;HPM_P2
2021/03/05 00:02:31;;;;;;;30.40;18.93;;;;;;;2.28;64.57;98649.50;2089233;84;21151;-78
2021/03/05 00:05:33;;;;;;;30.13;17.80;;;;;;;2.28;64.88;98647.34;2089162;84;21146;-77
2021/03/05 00:08:34;;;;;;;31.53;18.43;;;;;;;2.29;64.92;98649.97;2089205;84;21284;-78
2021/03/05 00:11:35;;;;;;;39.33;21.27;;;;;;;2.30;65.12;98649.16;2088791;85;21583;-78
2021/03/05 00:14:36;;;;;;;33.30;18.97;;;;;;;2.29;65.50;98649.97;2090082;85;21150;-77
2021/03/05 00:17:37;;;;;;;32.60;19.30;;;;;;;2.27;65.51;98655.47;2090026;84;21280;-78
2021/03/05 00:20:38;;;;;;;34.73;18.50;;;;;;;2.24;65.93;98658.80;2090442;84;21158;-79
2021/03/05 00:23:39;;;;;;;28.03;17.90;;;;;;;2.18;65.84;98657.26;2089514;84;21154;-78
2021/03/05 00:26:40;;;;;;;33.30;19.80;;;;;;;2.16;66.04;98659.30;2089754;84;21268;-77
2021/03/05 00:29:41;;;;;;;29.03;18.23;;;;;;;2.12;66.36;98658.30;2089411;84;21311;-78
2021/03/05 00:32:42;;;;;;;29.97;19.70;;;;;;;2.08;66.17;98649.09;2089572;84;21135;-78
2021/03/05 00:35:43;;;;;;;34.07;19.30;;;;;;;2.11;66.28;98651.80;2088944;85;21157;-78
2021/03/05 00:38:44;;;;;;;31.27;17.97;;;;;;;2.11;66.18;98649.22;2089404;84;21507;-79
2021/03/05 00:41:45;;;;;;;33.60;20.40;;;;;;;2.13;66.34;98646.30;2089713;84;21265;-78
2021/03/05 00:44:46;;;;;;;31.50;19.63;;;;;;;2.11;66.48;98641.09;2088891;84;21146;-78
2021/03/05 00:47:47;;;;;;;30.57;18.80;;;;;;;2.12;66.72;98639.39;2088857;84;21272;-77
2021/03/05 00:50:48;;;;;;;33.63;20.00;;;;;;;2.11;66.75;98640.20;2089003;84;21185;-78
2021/03/05 00:53:49;;;;;;;34.93;20.83;;;;;;;2.12;66.64;98626.11;2089109;85;21411;-77
2021/03/05 00:56:50;;;;;;;33.87;18.70;;;;;;;2.12;66.55;98631.25;2088846;84;21182;-78
2021/03/05 00:59:51;;;;;;;37.13;19.40;;;;;;;2.09;66.61;98631.54;2089418;84;21776;-77
2021/03/05 01:02:52;;;;;;;39.50;22.37;;;;;;;2.11;66.74;98629.91;2090190;84;21150;-78
2021/03/05 01:05:58;;;;;;;32.27;19.90;;;;;;;2.13;66.85;98630.44;2090156;84;21281;-78
2021/03/05 01:09:00;;;;;;;33.93;19.67;;;;;;;2.12;66.91;98630.38;2090185;85;21288;-79
2021/03/05 01:12:01;;;;;;;32.17;20.30;;;;;;;2.10;67.00;98626.86;2090219;84;21284;-78
2021/03/05 01:15:02;;;;;;;37.40;22.13;;;;;;;2.11;67.07;98617.91;2090282;84;21138;-78
2021/03/05 01:18:04;;;;;;;33.20;19.60;;;;;;;2.11;67.23;98626.05;2090185;84;21162;-78
2021/03/05 01:21:05;;;;;;;32.30;20.57;;;;;;;2.06;67.30;98622.40;2090059;84;21157;-78
2021/03/05 01:24:06;;;;;;;36.13;21.27;;;;;;;2.02;67.65;98623.09;2090547;84;21127;-78
2021/03/05 01:27:07;;;;;;;35.73;21.70;;;;;;;2.01;67.65;98627.77;2090354;84;21155;-79
2021/03/05 01:30:08;;;;;;;43.53;22.50;;;;;;;1.99;68.01;98629.40;2090191;84;21299;-77
2021/03/05 01:33:09;;;;;;;37.67;22.43;;;;;;;1.96;68.17;98617.69;2089747;85;21305;-79
2021/03/05 01:36:10;;;;;;;40.60;22.90;;;;;;;1.94;68.15;98625.34;2089864;84;21186;-78
2021/03/05 01:39:11;;;;;;;39.77;23.47;;;;;;;1.95;68.44;98626.22;2090239;85;21265;-78
2021/03/05 01:42:12;;;;;;;39.80;23.80;;;;;;;1.91;68.41;98624.80;2090331;85;21261;-78
2021/03/05 01:45:13;;;;;;;41.30;24.20;;;;;;;1.89;68.59;98618.72;2089869;84;21301;-77
2021/03/05 01:48:14;;;;;;;43.00;24.83;;;;;;;1.88;68.80;98622.10;2090455;84;21364;-79
2021/03/05 01:51:16;;;;;;;44.97;25.90;;;;;;;1.84;68.92;98621.50;2089315;84;21320;-78
2021/03/05 01:54:17;;;;;;;42.37;24.50;;;;;;;1.84;68.79;98627.94;2089397;85;21273;-77
2021/03/05 01:57:18;;;;;;;44.20;25.67;;;;;;;1.84;69.06;98624.08;2090157;84;21383;-77
2021/03/05 02:00:19;;;;;;;45.60;25.63;;;;;;;1.84;69.03;98630.51;2089998;84;21284;-77
2021/03/05 02:03:20;;;;;;;43.23;24.90;;;;;;;1.88;68.96;98629.83;2089676;84;21276;-77
2021/03/05 02:06:21;;;;;;;39.97;24.57;;;;;;;1.90;69.17;98637.20;2090194;84;21432;-78
2021/03/05 02:09:28;;;;;;;51.50;25.43;;;;;;;1.93;69.00;98642.01;2090621;84;21114;-78
2021/03/05 02:12:30;;;;;;;42.67;25.77;;;;;;;1.91;69.00;98644.11;2090350;85;21264;-77
2021/03/05 02:15:31;;;;;;;42.00;25.13;;;;;;;1.89;69.02;98645.74;2090545;84;21150;-78
2021/03/05 02:18:32;;;;;;;49.60;25.30;;;;;;;1.87;69.21;98647.38;2090404;84;21173;-78
2021/03/05 02:21:33;;;;;;;42.20;24.87;;;;;;;1.85;69.39;98650.28;2091250;84;21479;-77
2021/03/05 02:24:36;;;;;;;41.87;26.37;;;;;;;1.84;69.23;98644.66;2090619;84;21240;-77
2021/03/05 02:27:40;;;;;;;42.97;26.20;;;;;;;1.87;69.31;98646.49;2090368;84;21154;-78
2021/03/05 02:30:41;;;;;;;44.42;24.75;;;;;;;1.90;69.60;98649.20;2090346;85;21296;-78
2021/03/05 02:33:45;;;;;;;42.97;26.13;;;;;;;1.89;69.37;98648.72;2090892;84;21188;-77
2021/03/05 02:36:46;;;;;;;47.97;25.97;;;;;;;1.91;69.39;98650.95;2090493;84;21276;-78
2021/03/05 02:39:47;;;;;;;49.27;26.40;;;;;;;1.92;69.49;98648.85;2090658;84;21281;-78
2021/03/05 02:42:48;;;;;;;43.60;25.83;;;;;;;1.90;69.38;98646.63;2090267;84;21138;-77
2021/03/05 02:45:52;;;;;;;46.90;27.37;;;;;;;1.89;69.93;98649.60;2090334;85;21269;-78
2021/03/05 02:48:54;;;;;;;42.03;27.05;;;;;;;1.86;69.75;98652.45;2090374;84;21452;-77
2021/03/05 02:51:55;;;;;;;45.87;27.00;;;;;;;1.80;70.13;98653.48;2090052;84;21177;-77
2021/03/05 02:54:56;;;;;;;43.93;27.07;;;;;;;1.79;70.33;98656.45;2089958;84;21145;-77
2021/03/05 02:57:57;;;;;;;44.23;25.77;;;;;;;1.78;70.60;98649.55;2090070;84;21257;-77
2021/03/05 03:00:58;;;;;;;43.97;27.13;;;;;;;1.78;70.77;98651.24;2090173;84;21153;-78
2021/03/05 03:03:59;;;;;;;48.60;27.70;;;;;;;1.77;71.26;98655.52;2090647;84;21432;-78
2021/03/05 03:07:00;;;;;;;41.80;25.23;;;;;;;1.77;71.02;98654.63;2090109;84;21272;-77
2021/03/05 03:10:01;;;;;;;46.23;27.47;;;;;;;1.76;71.11;98655.45;2089985;84;21329;-77
2021/03/05 03:13:02;;;;;;;57.60;28.20;;;;;;;1.76;71.53;98662.76;2089943;84;21268;-77
2021/03/05 03:16:03;;;;;;;48.33;27.87;;;;;;;1.76;71.79;98660.19;2089715;84;21571;-78
2021/03/05 03:19:04;;;;;;;47.40;27.53;;;;;;;1.73;71.63;98658.73;2089567;84;21277;-77
2021/03/05 03:22:05;;;;;;;50.67;27.73;;;;;;;1.72;71.76;98660.83;2089439;84;21253;-77
2021/03/05 03:25:06;;;;;;;44.07;26.07;;;;;;;1.74;71.92;98659.23;2089117;84;21594;-78
2021/03/05 03:28:07;;;;;;;47.07;26.30;;;;;;;1.79;72.11;98660.73;2089204;84;21171;-77
2021/03/05 03:31:08;;;;;;;45.57;27.57;;;;;;;1.80;72.08;98663.36;2089117;84;21316;-78
2021/03/05 03:34:09;;;;;;;49.23;28.50;;;;;;;1.78;72.20;98663.70;2088903;85;21346;-78
2021/03/05 03:37:11;;;;;;;48.37;28.20;;;;;;;1.75;72.46;98663.58;2088948;84;21451;-78
2021/03/05 03:40:12;;;;;;;45.57;27.77;;;;;;;1.75;72.57;98667.84;2090065;85;21264;-80
2021/03/05 03:43:14;;;;;;;50.87;28.53;;;;;;;1.72;72.74;98669.84;2089161;84;21138;-79
2021/03/05 03:46:15;;;;;;;46.17;28.93;;;;;;;1.71;72.95;98669.37;2089173;84;21122;-78
2021/03/05 03:49:16;;;;;;;45.83;26.83;;;;;;;1.70;73.00;98673.16;2090120;84;21415;-78
2021/03/05 03:52:17;;;;;;;52.73;29.70;;;;;;;1.66;73.08;98677.30;2089943;84;21465;-79
2021/03/05 03:55:18;;;;;;;50.57;29.43;;;;;;;1.63;73.25;98683.59;2089598;84;21290;-78
2021/03/05 03:58:19;;;;;;;51.47;29.23;;;;;;;1.59;73.42;98674.86;2089898;84;21549;-79
2021/03/05 04:01:20;;;;;;;54.40;30.40;;;;;;;1.58;73.52;98676.08;2090444;84;21158;-79
2021/03/05 04:04:21;;;;;;;49.90;27.97;;;;;;;1.58;73.87;98671.81;2089978;84;21154;-78
2021/03/05 04:07:22;;;;;;;47.93;29.20;;;;;;;1.57;73.84;98671.34;2089727;84;21150;-79
2021/03/05 04:10:23;;;;;;;54.37;30.03;;;;;;;1.59;74.03;98672.69;2089853;84;21313;-78
2021/03/05 04:13:24;;;;;;;50.73;30.33;;;;;;;1.58;73.97;98676.08;2088797;84;21273;-78
2021/03/05 04:16:25;;;;;;;45.67;28.70;;;;;;;1.59;74.05;98675.27;2089039;84;21177;-79
2021/03/05 04:19:29;;;;;;;55.98;31.00;;;;;;;1.63;74.09;98681.42;2090085;84;21370;-78
2021/03/05 04:22:30;;;;;;;54.43;30.33;;;;;;;1.65;74.11;98683.25;2089663;84;21566;-79
2021/03/05 04:25:31;;;;;;;53.63;31.33;;;;;;;1.63;74.08;98682.30;2089352;84;21166;-79
2021/03/05 04:28:32;;;;;;;50.03;30.13;;;;;;;1.61;74.43;98689.08;2088365;84;21273;-79
2021/03/05 04:31:33;;;;;;;50.90;30.50;;;;;;;1.57;74.37;98693.20;2088970;84;21204;-79
2021/03/05 04:34:34;;;;;;;60.83;32.03;;;;;;;1.54;74.74;98697.33;2088122;84;21285;-80
2021/03/05 04:37:35;;;;;;;53.07;30.50;;;;;;;1.49;74.99;98697.13;2088597;84;21256;-80
2021/03/05 04:40:36;;;;;;;26.70;13.97;;;;;;;1.47;74.90;98701.73;2088156;84;21161;-80
2021/03/05 04:43:38;;;;;;;45.50;27.57;;;;;;;3.25;87.70;98691.19;2087745;85;21270;-81
2021/03/05 04:46:39;;;;;;;47.90;26.13;;;;;;;4.72;72.92;98693.42;2086673;84;21253;-81
2021/03/05 04:49:41;;;;;;;33.07;21.27;;;;;;;3.64;70.31;98704.73;2085699;85;21335;-80
2021/03/05 04:52:42;;;;;;;29.10;18.93;;;;;;;2.71;71.73;98706.27;2085398;84;21840;-81
2021/03/05 04:55:43;;;;;;;22.90;15.03;;;;;;;2.16;72.45;98705.24;2085977;84;21146;-81
2021/03/05 04:58:44;;;;;;;23.03;14.77;;;;;;;1.77;73.21;98712.13;2086762;84;21284;-81
2021/03/05 05:01:45;;;;;;;19.30;13.90;;;;;;;1.46;74.50;98717.56;2086234;84;21555;-82
2021/03/05 05:04:46;;;;;;;18.83;13.80;;;;;;;1.25;74.59;98723.90;2086988;84;21157;-80
2021/03/05 05:07:47;;;;;;;18.43;12.33;;;;;;;1.14;74.96;98728.95;2087709;85;21137;-79
2021/03/05 05:10:50;;;;;;;18.23;11.17;;;;;;;3.90;82.18;98727.62;2086507;85;21307;-80
2021/03/05 05:13:51;;;;;;;14.03;10.43;;;;;;;6.12;78.78;98720.13;2087901;85;21158;-84
2021/03/05 05:16:52;;;;;;;17.00;10.67;;;;;;;8.11;67.96;98720.99;2087771;84;21268;-82
2021/03/05 05:19:57;;;;;;;10.63;8.37;;;;;;;6.60;60.16;98724.44;2086972;84;21264;-81
2021/03/05 05:22:58;;;;;;;16.50;10.23;;;;;;;4.55;62.99;98738.52;2087264;85;21617;-83
2021/03/05 05:25:59;;;;;;;12.40;8.63;;;;;;;3.23;65.94;98747.41;2086792;85;21261;-81
2021/03/05 05:29:00;;;;;;;11.00;7.67;;;;;;;2.28;67.91;98755.51;2085948;84;21150;-81
2021/03/05 05:32:02;;;;;;;10.57;7.53;;;;;;;1.72;70.12;98769.31;2086829;85;21158;-81
2021/03/05 05:35:03;;;;;;;12.00;9.00;;;;;;;1.20;71.25;98771.66;2086263;84;21589;-81
2021/03/05 05:38:05;;;;;;;10.97;7.17;;;;;;;0.88;73.15;98775.67;2087866;85;21666;-82
2021/03/05 05:41:06;;;;;;;7.93;6.40;;;;;;;0.63;73.44;98775.72;2087573;84;21236;-83
2021/03/05 05:44:07;;;;;;;10.00;8.20;;;;;;;0.40;74.44;98773.70;2086049;84;21166;-82
2021/03/05 05:47:09;;;;;;;9.63;6.80;;;;;;;0.27;75.13;98783.75;2087527;84;21888;-85
2021/03/05 05:50:10;;;;;;;18.27;6.87;;;;;;;0.26;75.17;98786.23;2087255;84;21329;-83
2021/03/05 05:53:11;;;;;;;11.00;6.70;;;;;;;0.14;75.56;98789.47;2086434;84;21756;-81
2021/03/05 05:56:12;;;;;;;11.07;7.13;;;;;;;0.08;75.20;98791.31;2086326;84;21272;-80
2021/03/05 05:59:13;;;;;;;8.43;6.27;;;;;;;0.01;75.42;98794.36;2086735;84;21166;-82
2021/03/05 06:02:14;;;;;;;11.50;6.90;;;;;;;-0.03;75.79;98803.55;2086806;84;21150;-82
2021/03/05 06:05:15;;;;;;;12.93;7.13;;;;;;;-0.04;76.08;98801.79;2085876;84;21323;-77
2021/03/05 06:08:16;;;;;;;13.30;7.37;;;;;;;-0.04;76.07;98805.64;2085949;84;21618;-77
2021/03/05 06:11:17;;;;;;;10.23;6.97;;;;;;;-0.01;75.50;98808.36;2086335;84;21316;-79
2021/03/05 06:14:20;;;;;;;13.03;7.70;;;;;;;-0.02;75.84;98815.98;2085907;84;21598;-77
2021/03/05 06:17:21;;;;;;;8.83;6.90;;;;;;;0.04;75.81;98816.34;2085911;84;21150;-79
2021/03/05 06:20:22;;;;;;;10.33;7.10;;;;;;;0.11;75.69;98823.95;2086543;84;21127;-79
2021/03/05 06:23:25;;;;;;;11.37;6.80;;;;;;;0.13;75.53;98815.93;2086647;84;21268;-80
2021/03/05 06:26:27;;;;;;;10.20;6.90;;;;;;;0.20;75.63;98827.00;2086757;84;21133;-79
2021/03/05 06:29:28;;;;;;;7.87;6.33;;;;;;;0.18;75.74;98831.17;2085718;84;21173;-80
2021/03/05 06:32:29;;;;;;;7.80;6.03;;;;;;;0.21;75.33;98838.62;2085163;84;21181;-77
2021/03/05 06:35:30;;;;;;;11.47;6.57;;;;;;;0.26;75.56;98844.89;2086782;84;21276;-78
2021/03/05 06:38:31;;;;;;;10.60;6.27;;;;;;;0.25;75.47;98849.94;2087330;85;21293;-79
2021/03/05 06:41:35;;;;;;;8.43;6.47;;;;;;;0.28;75.50;98853.95;2087077;84;21513;-78
2021/03/05 06:44:35;;;;;;;11.13;7.00;;;;;;;0.31;75.03;98855.39;2086350;85;21908;-78
2021/03/05 06:47:36;;;;;;;9.87;7.23;;;;;;;0.39;75.15;98860.52;2086133;84;21276;-78
2021/03/05 06:50:37;;;;;;;8.60;6.07;;;;;;;0.40;75.22;98861.00;2086439;84;21182;-79
2021/03/05 06:53:39;;;;;;;9.00;6.13;;;;;;;0.35;75.44;98875.29;2086753;84;21272;-79
2021/03/05 06:56:40;;;;;;;9.97;6.27;;;;;;;0.34;75.58;98869.67;2087299;84;21256;-80
2021/03/05 06:59:41;;;;;;;9.70;6.47;;;;;;;0.40;75.25;98884.11;2086331;84;21277;-83
2021/03/05 07:02:42;;;;;;;12.93;7.20;;;;;;;0.41;74.95;98879.46;2086532;84;21261;-80
2021/03/05 07:05:44;;;;;;;8.97;5.40;;;;;;;0.45;75.20;98881.38;2086378;84;21118;-80
2021/03/05 07:08:45;;;;;;;10.97;6.97;;;;;;;0.47;74.99;98890.05;2086803;84;21614;-81
2021/03/05 07:11:49;;;;;;;7.67;5.53;;;;;;;0.45;75.08;98885.64;2086407;85;21832;-81
2021/03/05 07:14:50;;;;;;;12.63;5.93;;;;;;;0.44;75.07;98887.73;2087807;84;21118;-81
2021/03/05 07:17:54;;;;;;;7.70;5.13;;;;;;;0.40;75.12;98893.10;2087603;84;21412;-80
2021/03/05 07:20:55;;;;;;;9.50;5.97;;;;;;;0.44;75.27;98887.32;2087943;84;21257;-82
2021/03/05 07:23:56;;;;;;;8.47;5.67;;;;;;;0.44;75.08;98894.14;2087550;84;21150;-84
2021/03/05 07:26:59;;;;;;;10.40;6.43;;;;;;;0.44;74.85;98898.88;2086158;85;21165;-81
2021/03/05 07:30:03;;;;;;;13.67;7.20;;;;;;;0.37;74.70;98896.80;2087275;85;21654;-82
2021/03/05 07:33:04;;;;;;;13.03;8.50;;;;;;;0.34;74.83;98905.63;2086824;84;21875;-81
2021/03/05 07:36:05;;;;;;;15.90;7.37;;;;;;;0.35;74.67;98915.09;2087521;84;21149;-81
2021/03/05 07:39:06;;;;;;;10.53;7.27;;;;;;;0.35;74.66;98923.20;2087915;84;21543;-82
2021/03/05 07:42:07;;;;;;;15.07;8.57;;;;;;;0.41;74.60;98929.94;2087424;85;21292;-82
2021/03/05 07:45:08;;;;;;;18.03;8.67;;;;;;;0.45;74.33;98929.30;2086654;84;21268;-80
2021/03/05 07:48:10;;;;;;;15.93;9.10;;;;;;;0.53;74.28;98938.28;2086561;84;21141;-82
2021/03/05 07:51:12;;;;;;;14.63;9.30;;;;;;;0.72;73.95;98952.97;2087498;85;21309;-81
2021/03/05 07:54:13;;;;;;;18.17;9.83;;;;;;;0.89;73.60;98953.47;2087064;84;21280;-82
2021/03/05 07:57:17;;;;;;;15.28;8.83;;;;;;;1.16;73.07;98954.87;2087478;85;21264;-82
2021/03/05 08:00:18;;;;;;;15.33;9.47;;;;;;;1.31;72.62;98959.01;2086785;84;21408;-82
2021/03/05 08:03:19;;;;;;;17.23;9.53;;;;;;;1.39;72.04;98960.27;2087341;84;21288;-83
2021/03/05 08:06:20;;;;;;;13.50;8.37;;;;;;;1.45;71.80;98953.73;2087390;85;21114;-83
2021/03/05 08:09:21;;;;;;;11.73;8.33;;;;;;;1.58;71.39;98961.66;2087581;84;21276;-83
2021/03/05 08:12:25;;;;;;;14.53;8.90;;;;;;;1.69;70.56;98972.06;2086130;84;21300;-83
2021/03/05 08:15:25;;;;;;;12.80;8.67;;;;;;;1.63;70.23;98965.73;2087083;84;21320;-82
2021/03/05 08:18:26;;;;;;;10.20;8.50;;;;;;;1.63;70.64;98973.05;2087246;84;21269;-83
2021/03/05 08:21:28;;;;;;;22.13;9.67;;;;;;;1.55;70.43;98979.52;2086640;84;21559;-82
2021/03/05 08:24:29;;;;;;;13.83;9.67;;;;;;;1.46;70.48;98979.06;2086575;85;21958;-82
2021/03/05 08:27:30;;;;;;;14.90;9.47;;;;;;;1.41;70.47;98980.52;2087117;84;21330;-85
2021/03/05 08:30:31;;;;;;;22.13;10.57;;;;;;;1.31;70.78;98980.87;2085782;84;21352;-82
2021/03/05 08:33:33;;;;;;;15.30;10.07;;;;;;;1.30;70.85;98989.39;2083291;84;21198;-84
2021/03/05 08:36:34;;;;;;;23.93;16.60;;;;;;;1.27;71.37;98982.00;2083202;85;21150;-83
2021/03/05 08:39:35;;;;;;;18.17;11.23;;;;;;;1.31;71.56;98988.58;2083276;85;21277;-82
2021/03/05 08:42:39;;;;;;;19.00;11.40;;;;;;;1.44;71.39;98992.25;2083486;85;21433;-83
2021/03/05 08:45:39;;;;;;;14.77;11.20;;;;;;;1.48;70.41;98992.88;2083081;85;21277;-83
2021/03/05 08:48:41;;;;;;;20.70;11.07;;;;;;;1.38;70.81;99004.40;2082575;85;21277;-83
2021/03/05 08:51:44;;;;;;;25.83;11.23;;;;;;;1.40;70.73;99001.91;2083610;85;21252;-82
2021/03/05 08:54:45;;;;;;;19.70;11.23;;;;;;;1.54;71.02;99008.62;2083149;85;21282;-80
2021/03/05 08:57:46;;;;;;;33.80;12.90;;;;;;;1.71;70.84;99008.16;2081699;85;21115;-82
2021/03/05 09:00:47;;;;;;;18.17;10.53;;;;;;;1.85;70.55;99010.63;2081679;85;21174;-82
2021/03/05 09:03:48;;;;;;;21.73;12.33;;;;;;;1.97;70.27;99005.59;2081815;85;22006;-81
2021/03/05 09:06:49;;;;;;;23.03;12.73;;;;;;;2.01;69.61;99011.38;2081579;85;21332;-80
2021/03/05 09:09:50;;;;;;;18.60;12.07;;;;;;;1.96;69.61;99021.45;2081780;85;21950;-81
2021/03/05 09:12:51;;;;;;;17.50;11.77;;;;;;;1.91;70.05;99022.92;2082178;85;21147;-81
2021/03/05 09:15:53;;;;;;;22.10;14.30;;;;;;;1.91;69.30;99029.35;2082043;85;21280;-80
2021/03/05 09:18:54;;;;;;;21.07;13.17;;;;;;;1.70;69.64;99025.29;2081857;85;21594;-81
2021/03/05 09:21:58;;;;;;;20.83;12.80;;;;;;;1.49;69.75;99037.09;2082062;85;21154;-80
2021/03/05 09:24:59;;;;;;;21.23;13.43;;;;;;;1.41;69.97;99035.82;2082159;85;21625;-78
2021/03/05 09:28:00;;;;;;;21.40;13.03;;;;;;;1.42;70.22;99045.30;2081590;85;21157;-79
2021/03/05 09:31:01;;;;;;;27.80;14.53;;;;;;;1.38;70.24;99041.70;2082064;85;21162;-78
2021/03/05 09:34:02;;;;;;;40.60;19.07;;;;;;;1.43;70.38;99048.36;2085499;85;21308;-80
2021/03/05 09:37:03;;;;;;;39.27;18.67;;;;;;;1.47;70.15;99051.56;2085840;84;21265;-79
2021/03/05 09:40:05;;;;;;;29.63;16.27;;;;;;;1.54;69.87;99055.81;2086096;85;21260;-79
2021/03/05 09:43:06;;;;;;;19.70;13.47;;;;;;;1.56;70.10;99050.74;2086250;85;21253;-78
2021/03/05 09:46:07;;;;;;;23.67;14.10;;;;;;;1.55;70.22;99057.58;2086558;84;21491;-79
2021/03/05 09:49:08;;;;;;;17.90;11.77;;;;;;;1.53;70.23;99062.16;2086816;85;21137;-79
2021/03/05 09:52:09;;;;;;;22.20;12.60;;;;;;;1.61;69.74;99059.58;2087152;84;21925;-79
2021/03/05 09:55:10;;;;;;;16.70;11.00;;;;;;;1.80;70.00;99058.43;2087578;84;21272;-78
2021/03/05 09:58:11;;;;;;;18.83;11.13;;;;;;;1.99;68.88;99069.63;2087247;84;21264;-78
2021/03/05 10:01:12;;;;;;;15.10;11.00;;;;;;;1.95;69.03;99071.58;2086825;84;21146;-79
2021/03/05 10:04:13;;;;;;;21.10;11.60;;;;;;;1.95;69.20;99080.18;2087011;84;21165;-80
2021/03/05 10:07:15;;;;;;;18.87;11.97;;;;;;;2.02;68.16;99080.95;2087267;84;21145;-80
2021/03/05 10:10:16;;;;;;;17.27;10.77;;;;;;;1.93;68.93;99087.34;2086407;85;21991;-79
2021/03/05 10:13:17;;;;;;;16.67;10.03;;;;;;;1.80;68.85;99090.60;2086459;84;21269;-77
2021/03/05 10:16:18;;;;;;;17.03;9.57;;;;;;;1.75;67.87;99091.18;2086853;84;21142;-80
2021/03/05 10:19:21;;;;;;;18.63;10.10;;;;;;;1.74;68.29;99098.02;2086824;84;21260;-77
2021/03/05 10:22:22;;;;;;;17.20;10.30;;;;;;;1.88;68.59;99097.02;2086813;84;21745;-79
2021/03/05 10:25:23;;;;;;;20.50;9.87;;;;;;;2.04;68.58;99098.66;2087846;84;21289;-83
2021/03/05 10:28:24;;;;;;;16.77;9.30;;;;;;;2.19;67.55;99108.82;2087338;84;21138;-79
2021/03/05 10:31:25;;;;;;;12.87;8.40;;;;;;;2.24;67.17;99106.06;2087318;84;21324;-82
2021/03/05 10:34:26;;;;;;;47.27;20.80;;;;;;;2.35;66.93;99110.04;2087098;84;21309;-79
2021/03/05 10:37:27;;;;;;;12.83;8.60;;;;;;;2.45;67.24;99113.53;2086629;85;21268;-79
2021/03/05 10:40:28;;;;;;;13.53;8.53;;;;;;;2.62;66.34;99113.08;2087123;84;21269;-81
2021/03/05 10:43:30;;;;;;;13.20;7.23;;;;;;;2.80;64.84;99122.96;2088330;84;21628;-80
2021/03/05 10:46:31;;;;;;;11.17;6.83;;;;;;;2.90;62.86;99121.69;2087311;84;21272;-79
2021/03/05 10:49:32;;;;;;;12.37;6.60;;;;;;;3.09;62.97;99122.13;2087315;84;21268;-79
2021/03/05 10:52:34;;;;;;;14.03;7.10;;;;;;;4.32;63.40;99117.17;2086990;84;21197;-81
2021/03/05 10:55:35;;;;;;;9.77;5.40;;;;;;;7.29;66.98;99118.66;2086408;85;21293;-80
2021/03/05 10:58:36;;;;;;;15.50;5.97;;;;;;;7.01;52.98;99111.78;2086580;84;21145;-79
2021/03/05 11:01:37;;;;;;;14.13;6.80;;;;;;;5.60;53.43;99121.26;2087088;84;21464;-82
2021/03/05 11:04:41;;;;;;;22.90;8.67;;;;;;;4.75;57.18;99128.84;2087566;85;21173;-79
2021/03/05 11:07:42;;;;;;;17.47;6.97;;;;;;;4.16;56.92;99135.45;2087319;84;21261;-80
2021/03/05 11:10:43;;;;;;;12.13;6.77;;;;;;;3.84;58.99;99137.56;2086979;84;21343;-81
2021/03/05 11:13:44;;;;;;;10.20;6.13;;;;;;;3.63;58.52;99135.75;2087741;84;21144;-77
2021/03/05 11:16:45;;;;;;;12.70;6.33;;;;;;;3.48;59.48;99147.17;2088417;84;21322;-77
2021/03/05 11:19:46;;;;;;;10.20;6.37;;;;;;;3.60;60.38;99134.33;2088445;84;21158;-78
2021/03/05 11:22:47;;;;;;;14.90;7.00;;;;;;;3.81;59.38;99136.55;2088193;84;21150;-79
2021/03/05 11:25:50;;;;;;;9.00;5.60;;;;;;;3.91;59.15;99133.95;2087340;84;21897;-78
2021/03/05 11:28:51;;;;;;;13.50;5.20;;;;;;;4.05;58.03;99144.45;2087854;85;21142;-80
2021/03/05 11:31:52;;;;;;;6.43;5.27;;;;;;;3.92;57.88;99147.33;2087721;84;21174;-78
2021/03/05 11:34:55;;;;;;;11.07;5.57;;;;;;;3.77;57.38;99160.47;2087413;84;21166;-80
2021/03/05 11:37:55;;;;;;;14.20;5.70;;;;;;;3.36;58.11;99159.90;2088427;84;21130;-80
2021/03/05 11:40:57;;;;;;;9.13;5.40;;;;;;;3.19;58.36;99160.02;2088476;84;21280;-79
2021/03/05 11:43:59;;;;;;;9.53;5.63;;;;;;;3.03;58.46;99154.97;2089099;84;21118;-79
2021/03/05 11:47:00;;;;;;;9.57;5.43;;;;;;;3.01;59.12;99155.70;2088715;84;21639;-79
2021/03/05 11:50:01;;;;;;;13.70;5.27;;;;;;;3.07;59.40;99147.84;2088667;84;21154;-80
2021/03/05 11:53:02;;;;;;;11.80;5.63;;;;;;;3.08;57.81;99159.94;2087217;84;21280;-80
2021/03/05 11:56:03;;;;;;;12.00;7.03;;;;;;;2.94;59.27;99156.23;2087576;84;21184;-81
2021/03/05 11:59:07;;;;;;;14.77;6.77;;;;;;;2.90;59.41;99159.08;2088434;84;21176;-80
2021/03/05 12:02:08;;;;;;;9.57;5.90;;;;;;;2.88;58.97;99172.30;2087406;81;21271;-80
2021/03/05 12:05:09;;;;;;;13.43;7.07;;;;;;;2.97;59.07;99161.13;2062149;85;21564;-79
2021/03/05 12:08:11;;;;;;;9.70;6.30;;;;;;;3.02;58.73;99160.94;2066050;86;21267;-78
2021/03/05 12:11:14;;;;;;;8.77;5.30;;;;;;;3.15;58.95;99168.43;2066477;85;21180;-78
2021/03/05 12:14:17;;;;;;;12.18;5.72;;;;;;;3.14;57.67;99174.40;2067569;86;21327;-79
2021/03/05 12:17:19;;;;;;;11.00;4.73;;;;;;;3.11;57.15;99174.66;2075258;80;21192;-79
2021/03/05 12:20:23;;;;;;;8.30;4.30;;;;;;;3.03;55.93;99172.14;2071395;86;21957;-80
2021/03/05 12:23:25;;;;;;;10.83;5.33;;;;;;;2.98;55.18;99174.91;2071974;86;21322;-76
2021/03/05 12:26:26;;;;;;;9.77;4.90;;;;;;;2.91;56.59;99180.19;2071424;86;21280;-77
2021/03/05 12:29:27;;;;;;;15.40;5.73;;;;;;;2.73;56.57;99190.91;2073138;86;21268;-79
2021/03/05 12:32:28;;;;;;;11.33;4.83;;;;;;;2.56;57.05;99181.93;2073689;86;21197;-80
2021/03/05 12:35:29;;;;;;;12.13;7.77;;;;;;;2.66;57.95;99184.98;2075092;86;21244;-80
2021/03/05 12:38:30;;;;;;;14.73;7.87;;;;;;;2.88;56.88;99189.06;2072533;86;21155;-80
2021/03/05 12:41:31;;;;;;;10.33;7.13;;;;;;;3.18;56.50;99188.33;2071382;86;21275;-80
2021/03/05 12:44:32;;;;;;;11.03;3.80;;;;;;;3.48;54.73;99187.17;2072706;86;21616;-78
2021/03/05 12:47:33;;;;;;;5.63;3.77;;;;;;;3.61;55.07;99193.77;2072251;86;21272;-78
2021/03/05 12:50:34;;;;;;;5.80;3.67;;;;;;;3.47;53.52;99197.42;2072308;86;21258;-80
2021/03/05 12:53:35;;;;;;;6.23;3.40;;;;;;;3.31;53.42;99205.25;2072910;86;21406;-79
2021/03/05 12:56:36;;;;;;;6.67;3.07;;;;;;;3.15;52.04;99218.73;2072135;86;21252;-78
2021/03/05 12:59:37;;;;;;;4.60;2.57;;;;;;;2.92;51.71;99214.19;2071878;86;21122;-80
2021/03/05 13:02:39;;;;;;;6.43;2.90;;;;;;;2.72;50.84;99221.37;2071738;86;21271;-81
2021/03/05 13:05:43;;;;;;;10.93;3.30;;;;;;;2.62;51.38;99244.92;2071043;86;21279;-81
2021/03/05 13:08:44;;;;;;;11.00;4.43;;;;;;;2.57;51.03;99249.82;2071301;86;21152;-79
2021/03/05 13:11:45;;;;;;;7.13;4.10;;;;;;;2.58;52.48;99238.70;2072300;86;21174;-81
2021/03/05 13:14:46;;;;;;;9.30;4.03;;;;;;;2.65;52.76;99235.66;2073134;86;21275;-78
2021/03/05 13:17:47;;;;;;;7.90;4.10;;;;;;;2.58;52.39;99240.39;2073316;85;21171;-79
2021/03/05 13:20:48;;;;;;;8.60;3.83;;;;;;;2.49;52.90;99245.98;2074268;86;21418;-79
2021/03/05 13:23:49;;;;;;;11.50;4.17;;;;;;;2.41;53.01;99244.31;2074537;86;21271;-80
2021/03/05 13:26:51;;;;;;;6.93;3.63;;;;;;;2.32;53.07;99252.86;2074261;86;21294;-81
2021/03/05 13:29:52;;;;;;;7.53;3.57;;;;;;;2.24;53.73;99255.05;2074470;86;21601;-77
2021/03/05 13:32:53;;;;;;;8.47;3.80;;;;;;;2.29;53.90;99259.55;2073626;86;21302;-77
2021/03/05 13:35:54;;;;;;;9.10;3.73;;;;;;;2.40;53.98;99264.44;2072334;86;21263;-80
2021/03/05 13:38:55;;;;;;;8.27;3.57;;;;;;;2.54;54.59;99259.98;2073293;86;21153;-81
2021/03/05 13:42:03;;;;;;;10.07;4.20;;;;;;;2.73;53.85;99265.67;2073605;86;21292;-81
2021/03/05 13:45:18;;;;;;;;;;;;;;;;;;;;;
2021/03/05 13:48:21;;;;;;;5.73;3.70;;;;;;;2.75;51.53;99271.38;2074718;86;21279;-79
2021/03/05 13:51:22;;;;;;;6.67;3.80;;;;;;;2.67;51.67;99271.81;2074970;86;21200;-79
2021/03/05 13:54:24;;;;;;;5.57;3.60;;;;;;;2.55;51.04;99274.23;2074662;86;21117;-77
2021/03/05 13:57:25;;;;;;;12.67;3.80;;;;;;;2.45;51.59;99282.30;2075254;86;21125;-79
2021/03/05 14:00:26;;;;;;;9.63;3.70;;;;;;;2.32;51.11;99286.35;2074361;86;21263;-80
2021/03/05 14:03:28;;;;;;;8.40;3.63;;;;;;;2.14;50.28;99294.42;2073110;86;21255;-81
2021/03/05 14:06:31;;;;;;;12.83;3.50;;;;;;;2.05;49.98;99301.67;2073283;86;21379;-80
2021/03/05 14:09:32;;;;;;;7.00;3.17;;;;;;;1.99;51.62;99300.95;2074138;86;21160;-80
2021/03/05 14:12:34;;;;;;;20.27;6.03;;;;;;;2.03;52.39;99304.56;2074415;86;21162;-79